createdAt,value
2023-03-19T00:00:32.665Z,24.50
2023-03-19T00:05:32.022Z,24.05
2023-03-19T00:10:32.148Z,23.69
2023-03-19T00:15:31.264Z,23.25
2023-03-19T00:20:30.559Z,22.21
2023-03-19T00:25:28.848Z,22.17
2023-03-19T00:30:28.192Z,22.39
2023-03-19T00:35:27.305Z,22.27
2023-03-19T00:40:27.627Z,22.07
2023-03-19T00:45:25.916Z,21.86
2023-03-19T00:50:25.261Z,21.83
2023-03-19T00:55:25.448Z,21.58
2023-03-19T01:00:23.579Z,21.38
2023-03-19T01:05:22.936Z,21.16
2023-03-19T01:10:23.256Z,21.09
2023-03-19T01:15:26.917Z,20.92
2023-03-19T01:20:19.791Z,20.80
2023-03-19T01:25:21.106Z,20.74
2023-03-19T01:30:20.386Z,20.62
2023-03-19T01:35:19.747Z,20.59
2023-03-19T01:40:17.873Z,20.51
2023-03-19T01:45:16.995Z,20.41
2023-03-19T01:50:17.165Z,20.36
2023-03-19T01:55:15.315Z,20.31
2023-03-19T02:00:14.463Z,20.13
2023-03-19T02:05:14.626Z,19.92
2023-03-19T02:10:12.742Z,19.96
2023-03-19T02:15:11.882Z,19.77
2023-03-19T02:20:11.066Z,19.73
2023-03-19T02:25:10.206Z,19.65
2023-03-19T02:30:08.566Z,19.40
2023-03-19T02:35:08.748Z,19.63
2023-03-19T02:40:07.869Z,19.61
2023-03-19T02:45:07.168Z,19.58
2023-03-19T02:50:06.480Z,19.48
2023-03-19T02:55:07.763Z,19.40
2023-03-19T03:00:05.030Z,19.51
2023-03-19T03:05:04.326Z,19.48
2023-03-19T03:10:03.646Z,19.61
2023-03-19T03:15:02.938Z,19.80
2023-03-19T03:20:03.250Z,19.56
2023-03-19T03:25:01.545Z,19.77
2023-03-19T03:30:01.865Z,19.92
2023-03-19T03:35:00.166Z,19.99
2023-03-19T03:40:01.535Z,19.98
2023-03-19T03:44:58.662Z,19.99
2023-03-19T03:49:58.011Z,19.98
2023-03-19T03:54:58.122Z,19.87
2023-03-19T03:59:58.476Z,19.77
2023-03-19T04:04:56.558Z,19.78
2023-03-19T04:09:54.883Z,19.71
2023-03-19T04:14:55.224Z,19.71
2023-03-19T04:19:53.535Z,19.68
2023-03-19T04:24:53.897Z,19.68
2023-03-19T04:29:53.261Z,19.55
2023-03-19T04:34:51.413Z,19.41
2023-03-19T04:39:52.590Z,19.26
2023-03-19T04:44:49.679Z,19.25
2023-03-19T04:49:49.006Z,19.44
2023-03-19T04:54:49.368Z,19.68
2023-03-19T04:59:47.465Z,19.94
2023-03-19T05:04:46.778Z,20.16
2023-03-19T05:09:47.077Z,20.21
2023-03-19T05:14:45.397Z,20.28
2023-03-19T05:19:45.719Z,20.24
2023-03-19T05:24:45.031Z,20.23
2023-03-19T05:29:44.340Z,20.17
2023-03-19T05:34:44.689Z,20.10
2023-03-19T05:39:43.000Z,19.99
2023-03-19T05:44:41.336Z,19.92
2023-03-19T05:49:40.652Z,19.81
2023-03-19T05:54:40.001Z,19.77
2023-03-19T05:59:39.126Z,19.66
2023-03-19T06:04:38.275Z,19.56
2023-03-19T06:09:39.416Z,19.51
2023-03-19T06:14:36.720Z,19.29
2023-03-19T06:19:36.073Z,19.41
2023-03-19T06:24:35.202Z,19.55
2023-03-19T06:29:35.553Z,19.92
2023-03-19T06:34:33.972Z,20.29
2023-03-19T06:39:33.810Z,20.39
2023-03-19T06:44:33.579Z,20.59
2023-03-19T06:49:32.493Z,20.74
2023-03-19T06:54:32.820Z,20.66
2023-03-19T06:59:30.113Z,20.36
2023-03-19T07:04:29.515Z,20.23
2023-03-19T07:09:31.633Z,20.54
2023-03-19T07:14:27.963Z,20.55
2023-03-19T07:19:27.111Z,20.48
2023-03-19T07:24:27.270Z,20.38
2023-03-19T07:29:25.618Z,20.31
2023-03-19T07:34:24.733Z,20.21
2023-03-19T07:39:24.052Z,20.13
2023-03-19T07:44:24.379Z,20.06
2023-03-19T07:49:22.568Z,19.95
2023-03-19T07:54:21.693Z,19.88
2023-03-19T07:59:21.005Z,19.91
2023-03-19T08:04:21.358Z,19.84
2023-03-19T08:09:19.518Z,20.76
2023-03-19T08:14:18.792Z,21.61
2023-03-19T08:19:18.099Z,22.10
2023-03-19T08:24:18.402Z,21.75
2023-03-19T08:29:18.885Z,21.77
2023-03-19T08:34:16.958Z,21.79
2023-03-19T08:39:16.114Z,21.84
2023-03-19T08:44:13.245Z,21.68
2023-03-19T08:49:13.608Z,21.71
2023-03-19T08:54:12.780Z,21.44
2023-03-19T08:59:13.922Z,21.61
2023-03-19T09:04:12.255Z,21.32
2023-03-19T09:09:10.458Z,21.22
2023-03-19T09:14:09.591Z,21.13
2023-03-19T09:19:09.739Z,21.03
2023-03-19T09:24:09.089Z,20.85
2023-03-19T09:29:08.238Z,20.84
2023-03-19T09:34:06.374Z,20.72
2023-03-19T09:39:05.724Z,20.73
2023-03-19T09:44:04.842Z,20.66
2023-03-19T09:49:04.188Z,20.52
2023-03-19T09:54:03.315Z,20.52
2023-03-19T09:59:02.481Z,20.52
2023-03-19T10:04:02.759Z,20.76
2023-03-19T10:09:02.201Z,21.61
2023-03-19T10:14:01.169Z,21.99
2023-03-19T10:19:00.557Z,22.02
2023-03-19T10:23:58.471Z,22.14
2023-03-19T10:28:59.798Z,22.21
2023-03-19T10:33:57.121Z,22.18
2023-03-19T10:38:56.442Z,22.06
2023-03-19T10:43:56.803Z,22.09
2023-03-19T10:48:57.130Z,21.96
2023-03-19T10:53:54.421Z,21.91
2023-03-19T10:58:53.748Z,21.84
2023-03-19T11:03:53.143Z,21.75
2023-03-19T11:08:52.276Z,21.64
2023-03-19T11:13:51.573Z,21.50
2023-03-19T11:19:00.687Z,21.44
2023-03-19T11:23:51.137Z,21.34
2023-03-19T11:28:50.444Z,21.24
2023-03-19T11:33:49.786Z,21.27
2023-03-19T11:38:49.117Z,21.22
2023-03-19T11:43:47.445Z,21.58
2023-03-19T11:48:47.729Z,22.92
2023-03-19T11:53:45.874Z,24.16
2023-03-19T11:58:45.208Z,24.73
2023-03-19T12:03:46.370Z,25.02
2023-03-19T12:08:43.629Z,25.05
2023-03-19T12:13:42.769Z,25.40
2023-03-19T12:18:41.916Z,26.05
2023-03-19T12:23:41.059Z,26.36
2023-03-19T12:28:45.495Z,26.33
2023-03-19T12:33:39.588Z,26.35
2023-03-19T12:38:38.924Z,26.43
2023-03-19T12:43:40.274Z,26.76
2023-03-19T12:48:37.401Z,26.94
2023-03-19T12:53:36.585Z,27.07
2023-03-19T12:58:35.789Z,27.25
2023-03-19T13:03:34.939Z,27.49
2023-03-19T13:08:34.282Z,27.34
2023-03-19T13:13:33.437Z,26.89
2023-03-19T13:18:31.574Z,26.72
2023-03-19T13:23:31.914Z,27.19
2023-03-19T13:28:31.081Z,27.40
2023-03-19T13:33:30.182Z,27.09
2023-03-19T13:38:29.180Z,26.54
2023-03-19T13:43:29.144Z,26.43
2023-03-19T13:48:26.724Z,26.97
2023-03-19T13:53:26.813Z,26.65
2023-03-19T13:58:27.115Z,26.18
2023-03-19T14:03:25.517Z,26.21
2023-03-19T14:08:25.645Z,26.26
2023-03-19T14:13:24.207Z,26.33
2023-03-19T14:18:23.135Z,25.83
2023-03-19T14:23:23.828Z,25.85
2023-03-19T14:28:21.594Z,25.73
2023-03-19T14:33:22.199Z,25.90
2023-03-19T14:38:21.148Z,25.62
2023-03-19T14:43:21.454Z,25.67
2023-03-19T14:48:21.062Z,25.51
2023-03-19T14:53:19.065Z,25.67
2023-03-19T14:58:17.188Z,26.15
2023-03-19T15:03:16.595Z,26.20
2023-03-19T15:08:15.588Z,25.85
2023-03-19T15:13:14.758Z,25.55
2023-03-19T15:18:12.890Z,25.25
2023-03-19T15:23:26.324Z,25.30
2023-03-19T15:28:14.150Z,25.46
2023-03-19T15:33:29.171Z,25.17
2023-03-19T15:38:10.810Z,24.98
2023-03-19T15:43:09.826Z,24.99
2023-03-19T15:48:10.491Z,25.21
2023-03-19T15:53:09.658Z,25.58
2023-03-19T15:58:08.680Z,25.47
2023-03-19T16:03:07.939Z,25.39
2023-03-19T16:08:08.466Z,25.27
2023-03-19T16:13:05.612Z,25.97
2023-03-19T16:18:04.726Z,25.46
2023-03-19T16:23:03.059Z,25.36
2023-03-19T16:28:03.208Z,25.08
2023-03-19T16:33:02.559Z,25.20
2023-03-19T16:38:01.716Z,25.38
2023-03-19T16:43:02.668Z,25.21
2023-03-19T16:48:00.382Z,25.06
2023-03-19T16:53:00.718Z,25.18
2023-03-19T16:57:58.568Z,24.65
2023-03-19T17:02:58.103Z,24.43
2023-03-19T17:07:57.331Z,25.15
2023-03-19T17:12:56.467Z,25.33
2023-03-19T17:17:54.648Z,24.96
2023-03-19T17:22:55.871Z,25.02
2023-03-19T17:27:54.134Z,24.87
2023-03-19T17:32:53.374Z,24.96
2023-03-19T17:37:52.608Z,25.10
2023-03-19T17:42:51.826Z,25.24
2023-03-19T17:47:51.172Z,24.91
2023-03-19T17:52:50.439Z,24.64
2023-03-19T17:57:49.601Z,24.62
2023-03-19T18:02:47.822Z,24.25
2023-03-19T18:07:47.102Z,23.88
2023-03-19T18:12:46.919Z,23.79
2023-03-19T18:17:46.474Z,23.42
2023-03-19T18:22:47.673Z,23.83
2023-03-19T18:27:45.051Z,25.36
2023-03-19T18:32:44.259Z,24.34
2023-03-19T18:37:48.593Z,24.58
2023-03-19T18:42:42.749Z,24.46
2023-03-19T18:47:41.992Z,24.18
2023-03-19T18:52:41.194Z,23.53
2023-03-19T18:57:41.237Z,23.69
2023-03-19T19:02:40.569Z,24.73
2023-03-19T19:07:39.763Z,24.78
2023-03-19T19:12:37.945Z,24.88
2023-03-19T19:17:38.087Z,24.99
2023-03-19T19:22:36.467Z,25.35
2023-03-19T19:27:37.599Z,25.21
2023-03-19T19:32:35.569Z,25.09
2023-03-19T19:37:34.881Z,25.35
2023-03-19T19:42:33.449Z,25.33
2023-03-19T19:47:33.707Z,25.61
2023-03-19T19:52:31.999Z,24.98
2023-03-19T19:57:32.823Z,24.85
2023-03-19T20:02:30.016Z,25.42
2023-03-19T20:07:30.569Z,24.93
2023-03-19T20:12:28.731Z,24.83
2023-03-19T20:17:30.709Z,24.24
2023-03-19T20:22:28.158Z,23.70
2023-03-19T20:27:28.371Z,24.10
2023-03-19T20:32:26.663Z,24.91
2023-03-19T20:37:25.651Z,24.71
2023-03-19T20:42:25.170Z,24.64
2023-03-19T20:47:23.282Z,25.10
2023-03-19T20:52:23.170Z,25.33
2023-03-19T20:57:21.689Z,25.28
2023-03-19T21:02:22.704Z,23.79
2023-03-19T21:07:20.292Z,23.87
2023-03-19T21:12:22.161Z,24.16
2023-03-19T21:17:18.787Z,23.93
2023-03-19T21:22:17.622Z,24.30
2023-03-19T21:27:17.805Z,24.21
2023-03-19T21:32:16.373Z,24.08
2023-03-19T21:37:15.249Z,25.50
2023-03-19T21:42:15.615Z,24.43
2023-03-19T21:47:14.646Z,23.43
2023-03-19T21:52:12.858Z,23.84
2023-03-19T21:57:12.054Z,23.50
2023-03-19T22:02:11.212Z,23.25
2023-03-19T22:07:11.516Z,22.95
2023-03-19T22:12:11.818Z,22.94
2023-03-19T22:17:09.141Z,23.16
2023-03-19T22:22:08.467Z,24.32
2023-03-19T22:27:07.813Z,25.15
2023-03-19T22:32:06.966Z,25.10
2023-03-19T22:37:06.108Z,25.69
2023-03-19T22:42:07.463Z,25.08
2023-03-19T22:47:04.784Z,25.32
2023-03-19T22:52:04.080Z,25.58
2023-03-19T22:57:03.376Z,26.72
2023-03-19T23:02:02.873Z,26.99
2023-03-19T23:07:01.840Z,27.06
2023-03-19T23:12:01.161Z,26.63
2023-03-19T23:17:05.718Z,26.39
2023-03-19T23:21:59.791Z,26.47
2023-03-19T23:27:00.154Z,26.28
2023-03-19T23:31:58.315Z,26.21
2023-03-19T23:36:57.634Z,25.98
2023-03-19T23:41:58.995Z,25.72
2023-03-19T23:46:56.107Z,25.70
2023-03-19T23:51:55.411Z,25.32
2023-03-19T23:56:56.725Z,25.08
